028  
FGUS64 KORN 231539  
ESPORN  
 
EXTENDED STREAMFLOW PREDICTION  
NATIONAL WEATHER SERVICE RIVER FORECAST CENTER, SLIDELL, LA  
1539 PM GMT TUE APR 23 2024  
 
DATE CPGM7 CIRI2 HKMK2 NMDM7 TPTM7 CRTM7 OSGA4 MEMT1 MHOM6 HEEA4  
04-24-24 20.4 37.8 31.4 26.5 30.1 27.2 22.5 22.1 22.5 30.1  
04-25-24 20.3 36.8 30.6 25.9 29.7 27.0 22.4 22.1 22.5 30.1  
04-26-24 20.0 35.3 29.3 24.7 28.9 26.4 22.0 22.0 22.5 30.2  
04-27-24 19.4 33.0 27.3 22.8 27.4 25.3 21.1 21.4 22.2 30.1  
04-28-24 18.8 31.0 25.2 20.5 25.3 23.6 19.5 20.2 21.3 29.6  
04-29-24 18.3 28.8 23.0 18.1 23.1 21.6 17.4 18.3 19.8 28.4  
04-30-24 18.1 26.8 21.0 15.9 20.9 19.4 15.2 16.2 17.9 26.8  
05-01-24 17.8 25.2 19.3 14.4 19.2 17.5 13.2 14.2 15.9 24.9  
05-02-24 17.4 24.0 18.2 13.4 18.0 16.1 11.4 12.4 14.1 23.0  
05-03-24 16.9 23.1 17.4 12.6 17.1 15.1 10.1 11.0 12.6 21.3  
05-04-24 16.4 22.5 16.8 11.8 16.4 14.4 9.0 9.9 11.5 20.0  
05-05-24 16.0 22.1 16.3 11.2 15.7 13.7 8.2 9.1 10.8 19.0  
05-06-24 15.5 21.8 15.8 10.8 15.2 13.2 7.6 8.6 10.3 18.2  
05-07-24 15.0 21.4 15.4 10.4 14.8 12.8 7.1 8.2 9.9 17.7  
05-08-24 14.6 21.0 15.1 10.2 14.6 12.5 6.9 7.9 9.6 17.3  
05-09-24 14.1 20.6 14.8 9.9 14.3 12.2 6.6 7.6 9.3 17.1  
05-10-24 13.6 20.3 14.6 9.7 14.1 12.0 6.4 7.4 9.0 16.9  
05-11-24 13.2 20.0 14.3 9.5 13.9 11.8 6.2 7.2 8.8 16.8  
05-12-24 12.7 19.8 14.1 9.4 13.7 11.6 6.0 7.0 8.6 16.6  
05-13-24 12.3 19.5 13.9 9.2 13.6 11.5 5.8 6.8 8.4 16.4  
05-14-24 11.8 19.3 13.7 9.1 13.5 11.4 5.7 6.7 8.2 16.2  
05-15-24 11.3 19.1 13.6 9.0 13.4 11.3 5.5 6.5 8.1 16.1  
05-16-24 10.9 19.0 13.4 8.9 13.3 11.2 5.4 6.4 7.9 16.0  
05-17-24 10.5 18.8 13.2 8.8 13.2 11.1 5.3 6.3 7.8 15.8  
05-18-24 10.2 18.6 13.1 8.7 13.1 11.0 5.2 6.2 7.7 15.7  
05-19-24 9.9 18.4 13.1 8.7 13.0 10.9 5.1 6.1 7.6 15.6  
05-20-24 9.7 18.3 13.0 8.6 13.0 10.8 5.0 6.0 7.5 15.5  
05-21-24 9.5 18.2 13.0 8.5 12.9 10.8 5.0 6.0 7.5 15.5  
 
DATE ARSA4 GEEM6 VCKM6 NTZM6 RRLL1 BTRL1 DONL1 RRVL1 NORL1  
04-24-24 25.0 36.9 35.5 44.5 48.1 31.2 21.7 16.3 11.4  
04-25-24 24.9 36.8 35.2 44.2 47.9 31.0 21.6 16.3 11.4  
04-26-24 24.8 36.7 35.0 44.0 47.7 30.8 21.5 16.2 11.3  
04-27-24 24.8 36.6 34.9 43.8 47.6 30.6 21.3 16.1 11.2  
04-28-24 24.6 36.5 34.8 43.7 47.4 30.4 21.2 15.9 11.0  
04-29-24 24.1 36.2 34.7 43.6 47.2 30.3 21.0 15.8 10.9  
04-30-24 23.3 35.5 34.3 43.4 47.1 30.2 20.9 15.7 10.8  
05-01-24 22.3 34.7 33.7 43.1 47.0 30.1 20.8 15.6 10.8  
05-02-24 21.1 33.7 32.9 42.5 46.7 29.9 20.7 15.5 10.7  
05-03-24 19.9 32.5 31.9 41.7 46.1 29.4 20.5 15.4 10.6  
05-04-24 18.9 31.4 30.7 40.7 45.3 28.8 20.1 15.1 10.5  
05-05-24 18.0 30.4 29.7 39.6 44.4 28.0 19.6 14.8 10.3  
05-06-24 17.4 29.7 28.8 38.6 43.4 27.0 18.9 14.4 10.0  
05-07-24 16.8 29.2 28.0 37.7 42.4 26.0 18.2 13.9 9.7  
05-08-24 16.4 28.7 27.5 37.0 41.5 25.1 17.6 13.5 9.4  
05-09-24 16.0 28.3 27.1 36.5 40.9 24.4 17.0 13.0 9.0  
05-10-24 15.7 28.0 26.7 36.1 40.4 23.9 16.5 12.6 8.7  
05-11-24 15.5 27.8 26.3 35.7 40.0 23.4 16.2 12.3 8.5  
05-12-24 15.4 27.6 26.1 35.3 39.6 23.0 15.9 12.1 8.3  
05-13-24 15.2 27.5 25.9 35.1 39.3 22.7 15.6 11.9 8.2  
05-14-24 15.1 27.3 25.7 34.9 39.0 22.4 15.4 11.7 8.0  
05-15-24 14.9 27.2 25.6 34.7 38.8 22.2 15.2 11.6 7.9  
05-16-24 14.8 27.1 25.4 34.6 38.7 22.0 15.0 11.5 7.8  
05-17-24 14.7 27.0 25.3 34.4 38.5 21.8 14.9 11.4 7.7  
05-18-24 14.7 26.9 25.2 34.3 38.3 21.7 14.8 11.3 7.7  
05-19-24 14.6 26.8 25.1 34.1 38.2 21.5 14.7 11.2 7.6  
05-20-24 14.5 26.7 25.0 34.0 38.1 21.4 14.6 11.1 7.5  
05-21-24 14.5 26.7 24.9 34.0 38.0 21.4 14.5 11.0 7.5  
 
NOTE: STAGE FORECASTS ARE BASED ON FUTURE RAINFALL COVERING  
THE NEXT 48 HOURS.  
 
END ORN  
 

 
 
CLICK HERE TO GO TO PREVIOUS BULLETINS.

The Nexlab RFC Page Main Text Page